Time;durP1;ratioP1;P1;durP2;ratioP2;P2;SDS_P1;SDS_P2;PMS_P1;PMS_P2;Temp;Humidity;BMP_temperature;BMP_pressure;BME280_temperature;BME280_humidity;BME280_pressure;Samples;Min_cycle;Max_cycle;Signal;HPM_P1;HPM_P2
2021/04/28 00:00:27;;;;;;;4.22;3.80;;;;;;;4.25;53.22;100605.94;1033007;28;20140;-74
2021/04/28 00:00:58;;;;;;;6.45;4.13;;;;;;;4.19;53.31;100603.16;1038332;28;20430;-74
2021/04/28 00:01:29;;;;;;;6.10;4.10;;;;;;;4.18;53.44;100603.97;1036327;28;20401;-74
2021/04/28 00:02:01;;;;;;;7.32;4.43;;;;;;;4.13;53.95;100608.94;1036580;28;20049;-73
2021/04/28 00:02:32;;;;;;;5.03;4.32;;;;;;;4.13;54.12;100603.81;1036604;28;20050;-74
2021/04/28 00:03:06;;;;;;;5.47;4.45;;;;;;;4.12;53.75;100608.88;1036474;28;20050;-74
2021/04/28 00:03:37;;;;;;;4.97;4.03;;;;;;;4.13;53.96;100606.38;1032482;28;20070;-74
2021/04/28 00:04:08;;;;;;;4.97;4.25;;;;;;;4.18;53.90;100609.09;1029317;28;20137;-74
2021/04/28 00:04:39;;;;;;;9.35;3.78;;;;;;;4.19;53.77;100603.16;1028435;28;20062;-74
2021/04/28 00:05:11;;;;;;;6.55;3.67;;;;;;;4.25;53.92;100608.50;1024763;28;20105;-74
2021/04/28 00:05:42;;;;;;;6.20;4.32;;;;;;;4.16;53.58;100603.06;1028896;28;20434;-74
2021/04/28 00:06:14;;;;;;;6.78;4.78;;;;;;;4.13;53.91;100605.50;1034276;28;20165;-74
2021/04/28 00:06:45;;;;;;;4.40;3.95;;;;;;;4.11;54.03;100602.03;1032895;28;20050;-74
2021/04/28 00:07:16;;;;;;;5.97;3.83;;;;;;;4.15;53.85;100604.75;1036612;28;20046;-74
2021/04/28 00:07:48;;;;;;;5.13;4.43;;;;;;;4.08;54.22;100597.66;1036750;28;20042;-74
2021/04/28 00:08:19;;;;;;;4.45;3.97;;;;;;;4.10;53.78;100603.72;1040738;28;20410;-74
2021/04/28 00:08:50;;;;;;;6.13;4.88;;;;;;;4.14;53.94;100600.47;1040682;28;20521;-74
2021/04/28 00:09:21;;;;;;;6.70;4.50;;;;;;;4.17;53.78;100600.56;1036480;28;20497;-74
2021/04/28 00:09:52;;;;;;;7.00;4.60;;;;;;;4.12;53.75;100604.63;1036443;28;20049;-74
2021/04/28 00:10:27;;;;;;;5.53;4.10;;;;;;;4.13;53.70;100602.94;1032379;28;20541;-74
2021/04/28 00:10:58;;;;;;;5.38;3.92;;;;;;;4.12;53.92;100596.94;1033298;28;20052;-74
2021/04/28 00:11:29;;;;;;;4.80;4.30;;;;;;;4.14;53.84;100597.00;1036565;28;20425;-74
2021/04/28 00:12:02;;;;;;;6.10;3.78;;;;;;;4.07;53.93;100593.34;1037419;28;20468;-74
2021/04/28 00:12:34;;;;;;;4.95;4.25;;;;;;;4.08;54.00;100596.78;1036934;28;20065;-74
2021/04/28 00:13:05;;;;;;;5.22;3.80;;;;;;;4.11;53.63;100596.91;1040534;28;20053;-74
2021/04/28 00:13:36;;;;;;;5.53;4.25;;;;;;;4.09;53.53;100601.09;1040516;28;20045;-73
2021/04/28 00:14:09;;;;;;;4.50;4.10;;;;;;;4.08;53.98;100599.34;1040545;28;20120;-74
2021/04/28 00:14:40;;;;;;;5.72;4.70;;;;;;;4.09;53.98;100606.22;1039980;28;20048;-74
2021/04/28 00:15:15;;;;;;;4.90;4.18;;;;;;;3.96;54.28;100600.63;1036805;28;20172;-74
2021/04/28 00:15:48;;;;;;;5.72;4.82;;;;;;;3.94;54.56;100594.59;1036815;28;20431;-74
2021/04/28 00:16:20;;;;;;;6.53;4.35;;;;;;;3.93;54.99;100590.28;1036403;28;20061;-74
2021/04/28 00:16:51;;;;;;;10.02;5.13;;;;;;;3.94;54.86;100592.03;1036587;28;20042;-74
2021/04/28 00:17:23;;;;;;;6.10;4.32;;;;;;;3.93;54.58;100590.28;1032318;28;20046;-74
2021/04/28 00:17:56;;;;;;;3.85;3.53;;;;;;;3.89;54.76;100596.09;1032961;28;20050;-74
2021/04/28 00:18:27;;;;;;;6.40;4.28;;;;;;;3.91;54.45;100594.50;1036439;28;20049;-74
2021/04/28 00:18:58;;;;;;;5.07;4.53;;;;;;;3.94;54.63;100597.16;1036510;28;20392;-74
2021/04/28 00:19:30;;;;;;;6.82;4.00;;;;;;;3.91;54.94;100597.06;1033063;28;20053;-74
2021/04/28 00:20:01;;;;;;;7.10;4.78;;;;;;;3.97;54.93;100599.84;1036524;28;20514;-74
2021/04/28 00:20:41;;;;;;;6.82;4.63;;;;;;;3.94;55.49;100593.72;1036445;28;20112;-74
2021/04/28 00:21:14;;;;;;;5.20;3.63;;;;;;;3.88;55.49;100591.81;1036497;28;20046;-74
2021/04/28 00:21:45;;;;;;;5.50;4.28;;;;;;;3.77;55.25;100598.22;1036545;28;20549;-74
2021/04/28 00:22:16;;;;;;;5.25;4.32;;;;;;;3.76;55.13;100598.16;1036533;28;20465;-74
2021/04/28 00:22:48;;;;;;;8.00;4.20;;;;;;;3.70;55.17;100596.25;1036681;28;20053;-74
2021/04/28 00:23:19;;;;;;;10.93;4.53;;;;;;;3.70;55.51;100596.25;1036782;28;20053;-74
2021/04/28 00:23:50;;;;;;;6.07;4.55;;;;;;;3.78;55.48;100596.53;1036767;28;20054;-74
2021/04/28 00:24:22;;;;;;;7.43;4.90;;;;;;;3.81;55.56;100591.53;1036713;28;20519;-74
2021/04/28 00:24:53;;;;;;;6.22;4.53;;;;;;;3.73;55.39;100591.22;1036663;28;20414;-74
2021/04/28 00:25:24;;;;;;;8.27;4.43;;;;;;;3.75;55.18;100596.41;1036748;28;20054;-74
2021/04/28 00:25:55;;;;;;;5.35;4.45;;;;;;;3.82;54.90;100595.81;1036384;28;20052;-74
2021/04/28 00:26:27;;;;;;;6.28;4.38;;;;;;;3.86;54.79;100597.69;1036509;28;20129;-74
2021/04/28 00:26:58;;;;;;;4.85;4.32;;;;;;;3.80;54.91;100589.75;1036360;28;20046;-75
2021/04/28 00:27:30;;;;;;;5.15;4.53;;;;;;;3.77;55.03;100592.22;1036779;28;20104;-74
2021/04/28 00:28:05;;;;;;;10.10;4.45;;;;;;;3.65;55.18;100590.06;1040606;28;20053;-74
2021/04/28 00:28:36;;;;;;;10.68;4.32;;;;;;;3.64;55.37;100589.19;1040577;28;20049;-74
2021/04/28 00:29:07;;;;;;;6.18;4.32;;;;;;;3.67;55.20;100588.44;1040359;28;20057;-73
2021/04/28 00:29:39;;;;;;;5.63;5.00;;;;;;;3.67;55.43;100591.00;1036464;28;20097;-74
2021/04/28 00:30:12;;;;;;;6.00;4.60;;;;;;;3.57;55.35;100599.97;1032364;28;20089;-74
2021/04/28 00:30:43;;;;;;;6.07;4.45;;;;;;;3.60;55.59;100589.03;1032370;28;20058;-74
2021/04/28 00:31:14;;;;;;;6.72;4.25;;;;;;;3.63;55.62;100589.13;1032983;28;20088;-74
2021/04/28 00:31:46;;;;;;;6.47;4.45;;;;;;;3.63;55.67;100595.13;1037095;28;20100;-74
2021/04/28 00:32:17;;;;;;;6.78;4.45;;;;;;;3.60;55.77;100589.03;1040386;28;20054;-74
2021/04/28 00:32:51;;;;;;;9.13;4.10;;;;;;;3.60;55.84;100591.56;1040601;28;20053;-74
2021/04/28 00:33:22;;;;;;;7.22;4.57;;;;;;;3.55;55.88;100590.53;1040439;28;20053;-74
2021/04/28 00:33:54;;;;;;;5.00;4.32;;;;;;;3.54;55.93;100586.22;1040390;28;20057;-74
2021/04/28 00:34:25;;;;;;;6.35;4.30;;;;;;;3.56;56.02;100587.16;1040678;28;20465;-74
2021/04/28 00:34:56;;;;;;;5.43;4.50;;;;;;;3.57;56.02;100588.88;1040678;28;20080;-74
2021/04/28 00:35:27;;;;;;;7.32;4.40;;;;;;;3.52;56.14;100586.19;1040533;28;20075;-74
2021/04/28 00:35:59;;;;;;;5.47;4.57;;;;;;;3.52;56.03;100582.72;1040853;28;20499;-74
2021/04/28 00:36:30;;;;;;;6.53;4.60;;;;;;;3.54;55.96;100588.78;1040907;28;20045;-74
2021/04/28 00:37:01;;;;;;;6.65;5.22;;;;;;;3.57;55.67;100582.09;1036317;28;20050;-74
2021/04/28 00:37:32;;;;;;;5.15;4.35;;;;;;;3.56;56.08;100587.16;1036374;28;20045;-74
2021/04/28 00:38:04;;;;;;;5.32;4.25;;;;;;;3.49;55.99;100591.16;1036442;28;20535;-74
2021/04/28 00:38:35;;;;;;;7.10;4.07;;;;;;;3.44;56.27;100588.41;1036776;28;20050;-74
2021/04/28 00:39:06;;;;;;;4.60;4.20;;;;;;;3.47;56.00;100590.25;1036363;28;20180;-74
2021/04/28 00:39:37;;;;;;;9.85;4.38;;;;;;;3.43;55.99;100588.38;1032283;28;20090;-74
2021/04/28 00:40:11;;;;;;;5.88;4.40;;;;;;;3.47;55.78;100586.81;1032351;28;20069;-75
2021/04/28 00:40:42;;;;;;;5.65;4.57;;;;;;;3.43;56.16;100586.69;1033106;28;20050;-74
2021/04/28 00:41:13;;;;;;;6.78;4.53;;;;;;;3.45;56.09;100579.06;1036458;28;20045;-74
2021/04/28 00:41:44;;;;;;;6.82;4.65;;;;;;;3.51;55.86;100584.41;1036054;28;20061;-74
2021/04/28 00:42:16;;;;;;;7.78;4.78;;;;;;;3.55;55.44;100582.84;1032469;28;20046;-74
2021/04/28 00:42:47;;;;;;;10.25;4.47;;;;;;;3.58;55.67;100577.88;1036247;28;20532;-74
2021/04/28 00:43:19;;;;;;;5.38;3.75;;;;;;;3.58;55.97;100576.19;1036423;28;20054;-74
2021/04/28 00:43:50;;;;;;;5.68;4.63;;;;;;;3.58;55.77;100576.19;1036267;28;20046;-74
2021/04/28 00:44:21;;;;;;;8.02;4.38;;;;;;;3.57;55.83;100570.97;1036427;28;20054;-74
2021/04/28 00:45:09;;;;;;;6.13;5.50;;;;;;;3.67;55.37;100578.19;1036159;28;20053;-74
2021/04/28 00:45:43;;;;;;;5.47;4.40;;;;;;;3.61;55.37;100571.16;1039013;28;20544;-74
2021/04/28 00:46:15;;;;;;;6.75;4.72;;;;;;;3.59;55.52;100567.69;1036406;28;20184;-74
2021/04/28 00:46:46;;;;;;;5.07;4.55;;;;;;;3.55;55.92;100563.25;1036361;28;20053;-73
2021/04/28 00:47:17;;;;;;;6.25;4.82;;;;;;;3.51;56.07;100563.94;1036476;28;20046;-74
2021/04/28 00:47:49;;;;;;;9.35;5.20;;;;;;;3.59;55.75;100574.50;1036328;28;20050;-74
2021/04/28 00:48:20;;;;;;;8.32;5.10;;;;;;;3.59;55.39;100572.81;1036335;28;20050;-74
2021/04/28 00:48:50;;;;;;;4.50;4.10;;;;;;;3.61;55.34;100570.28;1036350;28;20085;-74
2021/04/28 00:49:22;;;;;;;4.57;3.92;;;;;;;3.57;55.61;100565.88;1036415;28;20054;-74
2021/04/28 00:49:53;;;;;;;4.97;4.32;;;;;;;3.52;55.74;100569.94;1036115;28;20050;-74
2021/04/28 00:50:33;;;;;;;5.22;4.72;;;;;;;3.52;55.95;100562.25;1036702;28;20521;-74
2021/04/28 00:51:04;;;;;;;8.02;4.95;;;;;;;3.52;55.88;100562.25;1036403;28;20054;-74
2021/04/28 00:51:35;;;;;;;5.28;4.28;;;;;;;3.47;55.94;100571.47;1036306;28;20125;-73
2021/04/28 00:52:07;;;;;;;4.60;4.13;;;;;;;3.42;56.31;100567.03;1036203;28;20057;-74
2021/04/28 00:52:39;;;;;;;6.35;4.88;;;;;;;3.49;55.63;100559.59;1036366;28;20081;-74
2021/04/28 00:53:12;;;;;;;5.22;4.22;;;;;;;3.51;55.70;100565.63;1036382;28;20053;-74
2021/04/28 00:53:43;;;;;;;6.78;4.80;;;;;;;3.54;55.60;100568.31;1033162;28;20062;-74
2021/04/28 00:54:15;;;;;;;6.88;4.75;;;;;;;3.57;55.73;100561.63;1032244;28;20140;-74
2021/04/28 00:54:46;;;;;;;5.63;4.53;;;;;;;3.52;55.83;100567.38;1028240;28;20174;-74
2021/04/28 00:55:18;;;;;;;6.72;5.18;;;;;;;3.59;55.42;100565.13;1028863;28;20408;-74
2021/04/28 00:55:50;;;;;;;5.40;4.55;;;;;;;3.58;55.37;100562.53;1032767;28;20046;-74
2021/04/28 00:56:21;;;;;;;6.82;5.25;;;;;;;3.62;55.57;100561.81;1036676;28;20049;-74
2021/04/28 00:56:55;;;;;;;7.70;5.60;;;;;;;3.59;55.96;100569.38;1036236;28;20052;-74
2021/04/28 00:57:27;;;;;;;6.78;4.38;;;;;;;3.57;55.85;100563.31;1032276;28;20072;-74
2021/04/28 00:57:59;;;;;;;8.00;4.72;;;;;;;3.50;56.12;100569.88;1032335;28;20082;-74
2021/04/28 00:58:30;;;;;;;6.00;4.65;;;;;;;3.40;56.53;100567.78;1033157;28;20050;-74
2021/04/28 00:59:01;;;;;;;7.72;4.65;;;;;;;3.45;56.10;100556.03;1032776;28;20050;-74
2021/04/28 00:59:32;;;;;;;5.82;4.35;;;;;;;3.44;56.42;100567.09;1036257;28;20103;-74
2021/04/28 01:00:07;;;;;;;8.15;4.60;;;;;;;3.44;56.54;100560.28;1036386;28;20129;-74
2021/04/28 01:00:40;;;;;;;5.70;4.60;;;;;;;3.44;56.39;100565.41;1040274;28;20509;-74
2021/04/28 01:01:11;;;;;;;8.40;4.68;;;;;;;3.43;56.46;100561.09;1036265;28;20073;-74
2021/04/28 01:01:42;;;;;;;4.78;4.15;;;;;;;3.48;56.48;100568.09;1036286;28;20445;-74
2021/04/28 01:02:13;;;;;;;6.35;4.68;;;;;;;3.44;56.78;100560.28;1036248;28;20478;-73
2021/04/28 01:02:44;;;;;;;5.60;4.75;;;;;;;3.40;56.55;100561.00;1036407;28;20087;-73
2021/04/28 01:03:26;;;;;;;7.68;5.72;;;;;;;3.45;56.63;100558.59;1040711;28;20081;-74
2021/04/28 01:03:57;;;;;;;5.47;4.90;;;;;;;3.40;56.86;100563.56;1036290;28;20056;-74
2021/04/28 01:04:29;;;;;;;7.13;5.10;;;;;;;3.38;56.89;100556.63;1036199;28;20056;-74
2021/04/28 01:05:03;;;;;;;7.68;4.95;;;;;;;3.39;56.66;100564.34;1032321;28;20046;-74
2021/04/28 01:05:35;;;;;;;8.73;4.78;;;;;;;3.32;57.08;100557.25;1032264;28;20610;-74
2021/04/28 01:06:07;;;;;;;7.25;4.70;;;;;;;3.37;56.63;100562.56;1032271;28;20046;-74
2021/04/28 01:06:39;;;;;;;6.75;4.93;;;;;;;3.34;57.10;100558.19;1033217;28;20511;-74
2021/04/28 01:07:11;;;;;;;6.32;5.05;;;;;;;3.33;56.64;100561.56;1033041;28;20046;-74
2021/04/28 01:07:45;;;;;;;6.25;4.53;;;;;;;3.31;57.23;100560.63;1036115;28;20056;-73
2021/04/28 01:08:17;;;;;;;7.18;4.65;;;;;;;3.29;57.07;100558.81;1036380;28;20052;-74
2021/04/28 01:08:49;;;;;;;6.93;4.85;;;;;;;3.27;57.15;100558.75;1036230;28;20434;-74
2021/04/28 01:09:21;;;;;;;5.90;4.60;;;;;;;3.24;57.34;100557.78;1037215;28;20050;-74
2021/04/28 01:09:53;;;;;;;5.68;4.75;;;;;;;3.25;57.52;100554.41;1036175;28;20620;-74
2021/04/28 01:10:29;;;;;;;9.57;4.97;;;;;;;3.29;57.16;100557.16;1036293;28;20060;-73
2021/04/28 01:11:02;;;;;;;5.93;4.85;;;;;;;3.32;56.94;100558.94;1032106;28;20054;-74
2021/04/28 01:11:33;;;;;;;5.85;4.60;;;;;;;3.28;57.00;100550.28;1032103;28;20056;-74
2021/04/28 01:12:06;;;;;;;5.03;4.60;;;;;;;3.27;57.24;100557.91;1032312;28;20402;-74
2021/04/28 01:12:39;;;;;;;5.55;4.90;;;;;;;3.24;57.20;100551.00;1028938;28;20074;-74
2021/04/28 01:13:10;;;;;;;6.03;4.78;;;;;;;3.31;57.03;100559.75;1028148;28;20050;-73
2021/04/28 01:13:41;;;;;;;5.93;5.03;;;;;;;3.29;57.50;100554.59;1028264;28;20050;-73
2021/04/28 01:14:12;;;;;;;6.10;4.40;;;;;;;3.31;57.06;100552.97;1028573;28;20054;-74
2021/04/28 01:14:44;;;;;;;6.47;5.07;;;;;;;3.29;56.87;100551.16;1028521;28;20046;-73
2021/04/28 01:15:19;;;;;;;6.32;5.05;;;;;;;3.29;57.31;100556.25;1032108;28;20054;-74
2021/04/28 01:15:51;;;;;;;5.93;4.75;;;;;;;3.29;57.47;100551.16;1033020;28;20050;-74
2021/04/28 01:16:23;;;;;;;5.75;5.05;;;;;;;3.29;57.65;100551.16;1037480;28;20053;-74
2021/04/28 01:16:54;;;;;;;7.72;4.97;;;;;;;3.31;57.39;100545.28;1040565;28;20489;-74
2021/04/28 01:17:26;;;;;;;6.10;4.90;;;;;;;3.32;56.87;100552.16;1040485;28;20060;-74
2021/04/28 01:17:58;;;;;;;5.88;5.28;;;;;;;3.31;57.03;100550.41;1040695;28;20049;-74
2021/04/28 01:18:30;;;;;;;7.22;5.07;;;;;;;3.24;57.30;100552.69;1036324;28;20046;-74
2021/04/28 01:19:05;;;;;;;7.57;4.47;;;;;;;3.23;57.59;100556.03;1032158;28;20046;-74
2021/04/28 01:19:38;;;;;;;5.05;4.53;;;;;;;3.24;56.95;100551.00;1032153;28;20099;-74
2021/04/28 01:20:13;;;;;;;9.02;4.75;;;;;;;3.28;57.29;100554.53;1028208;28;20103;-73
2021/04/28 01:20:45;;;;;;;10.50;5.25;;;;;;;3.32;57.10;100552.16;1025742;28;20069;-73
2021/04/28 01:21:16;;;;;;;6.78;5.07;;;;;;;3.31;57.01;100549.53;1029384;28;20416;-74
2021/04/28 01:21:49;;;;;;;7.07;5.10;;;;;;;3.30;56.78;100553.78;1033146;28;20057;-74
2021/04/28 01:22:20;;;;;;;4.68;4.22;;;;;;;3.29;57.16;100554.59;1036177;28;20050;-74
2021/04/28 01:22:52;;;;;;;5.93;5.32;;;;;;;3.32;57.40;100556.41;1036320;28;20429;-74
2021/04/28 01:23:23;;;;;;;6.88;4.93;;;;;;;3.31;57.13;100557.22;1036861;28;20061;-73
2021/04/28 01:23:54;;;;;;;7.75;5.47;;;;;;;3.32;56.86;100551.28;1040794;28;20139;-74
2021/04/28 01:24:25;;;;;;;6.15;4.95;;;;;;;3.39;56.53;100546.47;1036196;28;20053;-74
2021/04/28 01:24:56;;;;;;;6.28;5.07;;;;;;;3.40;56.57;100552.44;1036155;28;20060;-74
2021/04/28 01:25:27;;;;;;;7.10;4.75;;;;;;;3.37;56.74;100554.91;1035987;28;20061;-74
2021/04/28 01:25:59;;;;;;;5.15;4.50;;;;;;;3.32;57.18;100549.59;1036564;28;20100;-74
2021/04/28 01:26:32;;;;;;;5.60;4.93;;;;;;;3.34;56.96;100547.97;1040506;28;20049;-74
2021/04/28 01:27:16;;;;;;;7.13;4.93;;;;;;;3.34;57.03;100547.97;1040667;28;20145;-74
2021/04/28 01:27:54;;;;;;;7.18;5.10;;;;;;;3.33;56.71;100545.34;1040443;28;20132;-74
2021/04/28 01:28:25;;;;;;;8.02;4.85;;;;;;;3.35;56.61;100548.84;1040698;28;20041;-73
2021/04/28 01:29:00;;;;;;;7.28;5.43;;;;;;;3.34;56.74;100541.97;1036052;28;20050;-74
2021/04/28 01:29:33;;;;;;;6.30;5.03;;;;;;;3.42;56.33;100550.84;1032136;28;20050;-74
2021/04/28 01:30:07;;;;;;;9.35;4.70;;;;;;;3.49;56.09;100544.25;1032223;28;20133;-74
2021/04/28 01:30:42;;;;;;;8.32;5.68;;;;;;;3.48;56.57;100550.19;1033554;28;20054;-74
2021/04/28 01:31:15;;;;;;;6.65;5.47;;;;;;;3.49;56.66;100544.25;1036187;28;20053;-74
2021/04/28 01:31:49;;;;;;;9.40;5.40;;;;;;;3.49;56.04;100544.25;1031989;28;20054;-74
2021/04/28 01:32:23;;;;;;;6.95;4.85;;;;;;;3.41;56.43;100543.97;1033729;28;20616;-74
2021/04/28 01:32:56;;;;;;;5.72;4.63;;;;;;;3.37;56.51;100542.09;1036286;28;20053;-74
2021/04/28 01:33:35;;;;;;;5.55;4.78;;;;;;;3.38;57.06;100543.84;1036226;28;20146;-74
2021/04/28 01:34:07;;;;;;;5.72;4.50;;;;;;;3.36;56.71;100548.91;1032185;28;20597;-74
2021/04/28 01:34:39;;;;;;;7.30;4.82;;;;;;;3.37;56.78;100542.09;1032211;28;20506;-74
2021/04/28 01:35:16;;;;;;;9.20;4.47;;;;;;;3.37;56.61;100547.22;1035506;28;20046;-74
2021/04/28 01:35:52;;;;;;;4.93;4.30;;;;;;;3.33;56.53;100548.78;1037627;28;20053;-74
2021/04/28 01:36:28;;;;;;;5.53;4.65;;;;;;;3.33;56.65;100545.34;1040436;28;20054;-74
2021/04/28 01:37:02;;;;;;;7.68;4.82;;;;;;;3.33;56.61;100543.66;1040315;28;20046;-74
2021/04/28 01:37:34;;;;;;;9.50;5.70;;;;;;;3.31;56.90;100542.75;1040381;28;20092;-74
2021/04/28 01:38:06;;;;;;;6.53;4.30;;;;;;;3.26;56.73;100543.38;1040295;28;20051;-74
2021/04/28 01:38:43;;;;;;;10.52;5.15;;;;;;;3.30;56.85;100541.00;1035878;28;20049;-74
2021/04/28 01:39:16;;;;;;;6.72;5.18;;;;;;;3.30;56.78;100538.44;1035992;28;20379;-74
2021/04/28 01:39:50;;;;;;;7.38;4.50;;;;;;;3.30;57.05;100538.44;1035835;28;20065;-74
2021/04/28 01:40:22;;;;;;;7.70;4.68;;;;;;;3.25;56.70;100539.94;1037686;28;20066;-74
2021/04/28 01:40:54;;;;;;;5.60;4.70;;;;;;;3.24;56.53;100533.09;1040276;28;20049;-74
2021/04/28 01:41:28;;;;;;;5.13;4.35;;;;;;;3.27;56.52;100542.56;1040359;28;20056;-73
2021/04/28 01:41:59;;;;;;;6.35;4.70;;;;;;;3.26;56.73;100531.47;1035884;28;20140;-74
2021/04/28 01:42:31;;;;;;;8.90;5.88;;;;;;;3.26;56.78;100541.69;1035754;28;20049;-74
2021/04/28 01:43:04;;;;;;;9.23;5.25;;;;;;;3.28;56.86;100542.59;1031936;28;20054;-74
2021/04/28 01:43:35;;;;;;;5.93;4.97;;;;;;;3.29;56.94;100536.72;1032616;28;20417;-74
2021/04/28 01:44:09;;;;;;;8.20;5.18;;;;;;;3.24;56.81;100545.88;1036021;28;20049;-73
2021/04/28 01:44:41;;;;;;;7.13;5.53;;;;;;;3.18;57.13;100543.09;1035859;28;20050;-74
2021/04/28 01:45:13;;;;;;;5.45;4.95;;;;;;;3.10;57.23;100540.22;1031929;28;20523;-74
2021/04/28 01:45:52;;;;;;;5.30;4.75;;;;;;;3.14;57.46;100538.66;1031859;28;20047;-73
2021/04/28 01:46:28;;;;;;;6.03;5.35;;;;;;;3.08;57.47;100543.53;1033580;28;20050;-74
2021/04/28 01:47:00;;;;;;;8.63;5.22;;;;;;;3.10;57.63;100547.00;1038403;28;20053;-74
2021/04/28 01:47:33;;;;;;;7.00;4.68;;;;;;;3.10;57.32;100542.75;1040299;28;20057;-74
2021/04/28 01:48:05;;;;;;;11.18;5.20;;;;;;;3.07;57.48;100536.69;1040272;28;20046;-74
2021/04/28 01:48:42;;;;;;;7.88;4.70;;;;;;;3.03;57.24;100543.34;1031932;28;20051;-74
2021/04/28 01:49:13;;;;;;;5.30;4.75;;;;;;;3.03;57.55;100535.66;1031939;28;20046;-74
2021/04/28 01:49:45;;;;;;;5.28;4.75;;;;;;;2.98;57.65;100538.84;1031783;28;20057;-74
2021/04/28 01:50:18;;;;;;;6.05;4.50;;;;;;;2.92;57.92;100535.25;1029107;28;20047;-74
2021/04/28 01:50:51;;;;;;;9.02;4.40;;;;;;;2.93;58.00;100534.41;1031788;28;20434;-74
2021/04/28 01:51:22;;;;;;;7.00;5.05;;;;;;;2.92;58.03;100534.38;1031841;28;20057;-74
2021/04/28 01:51:55;;;;;;;6.80;4.63;;;;;;;2.93;57.75;100534.41;1031879;28;20058;-73
2021/04/28 01:52:26;;;;;;;6.72;5.18;;;;;;;2.95;58.61;100534.50;1028653;28;20052;-74
2021/04/28 01:52:58;;;;;;;5.20;4.60;;;;;;;2.95;58.10;100543.81;1031772;28;20042;-74
2021/04/28 01:53:30;;;;;;;5.55;4.45;;;;;;;2.92;57.88;100540.34;1031749;28;20137;-74
2021/04/28 01:54:03;;;;;;;8.52;5.38;;;;;;;2.95;58.36;100541.28;1031923;28;20053;-74
2021/04/28 01:54:34;;;;;;;6.97;5.47;;;;;;;2.92;58.04;100542.03;1036196;28;20046;-73
2021/04/28 01:55:07;;;;;;;6.78;4.82;;;;;;;2.97;57.68;100544.78;1036163;28;20056;-74
2021/04/28 01:55:39;;;;;;;6.65;5.18;;;;;;;2.90;58.14;100544.53;1031872;28;20058;-74
2021/04/28 01:56:10;;;;;;;7.82;4.90;;;;;;;2.83;58.24;100539.97;1027934;28;20066;-74
2021/04/28 01:56:44;;;;;;;7.10;5.00;;;;;;;2.75;58.46;100545.59;1023867;29;20546;-74
2021/04/28 01:57:17;;;;;;;6.47;5.03;;;;;;;2.75;58.54;100540.47;1024783;28;20110;-74
2021/04/28 01:57:48;;;;;;;6.65;4.75;;;;;;;2.68;58.67;100539.34;1024738;28;20107;-74
2021/04/28 01:58:21;;;;;;;6.22;4.60;;;;;;;2.76;58.55;100539.66;1028707;28;20055;-74
2021/04/28 01:58:54;;;;;;;5.95;5.35;;;;;;;2.79;58.56;100548.34;1031840;28;20073;-74
2021/04/28 01:59:27;;;;;;;6.60;5.25;;;;;;;2.77;58.53;100541.41;1032579;28;20046;-74
2021/04/28 01:59:58;;;;;;;7.28;4.57;;;;;;;2.71;58.77;100536.91;1031896;28;20046;-74
2021/04/28 02:00:30;;;;;;;6.95;4.10;;;;;;;2.67;58.95;100545.28;1031855;28;20046;-73
2021/04/28 02:01:02;;;;;;;6.30;4.35;;;;;;;2.69;59.06;100545.34;1032569;28;20054;-74
2021/04/28 02:01:33;;;;;;;10.07;5.10;;;;;;;2.73;58.70;100540.44;1036316;28;20061;-74
2021/04/28 02:02:05;;;;;;;6.63;5.35;;;;;;;2.68;58.58;100541.91;1040157;28;20099;-73
2021/04/28 02:02:38;;;;;;;4.93;4.43;;;;;;;2.66;58.90;100543.50;1040252;28;20077;-74
2021/04/28 02:03:10;;;;;;;8.05;5.50;;;;;;;2.76;58.93;100542.22;1035820;28;20109;-74
2021/04/28 02:03:41;;;;;;;7.22;4.90;;;;;;;2.75;58.82;100543.03;1036013;28;20103;-74
2021/04/28 02:04:14;;;;;;;7.07;4.93;;;;;;;2.76;58.60;100544.78;1031890;28;20065;-74
2021/04/28 02:04:45;;;;;;;7.88;4.78;;;;;;;2.74;58.73;100544.72;1031768;28;20049;-73
2021/04/28 02:05:18;;;;;;;8.38;6.30;;;;;;;2.70;58.75;100542.84;1027701;28;20046;-73
2021/04/28 02:05:50;;;;;;;9.38;5.40;;;;;;;2.71;58.71;100536.91;1028564;28;20046;-74
2021/04/28 02:06:22;;;;;;;6.25;5.00;;;;;;;2.62;58.50;100534.00;1032557;28;20076;-74
2021/04/28 02:06:53;;;;;;;7.70;4.95;;;;;;;2.69;59.02;100543.66;1032715;28;20050;-74
2021/04/28 02:07:24;;;;;;;8.48;5.47;;;;;;;2.64;58.96;100537.47;1031727;28;20046;-73
2021/04/28 02:07:55;;;;;;;5.70;5.13;;;;;;;2.59;59.03;100539.84;1031695;28;20058;-73
2021/04/28 02:08:27;;;;;;;6.97;5.25;;;;;;;2.56;59.33;100538.84;1032208;28;20479;-74
2021/04/28 02:08:58;;;;;;;7.22;4.95;;;;;;;2.47;59.52;100534.22;1031790;28;20050;-74
2021/04/28 02:09:30;;;;;;;10.25;5.45;;;;;;;2.52;59.68;100536.97;1027627;28;20085;-74
2021/04/28 02:10:07;;;;;;;5.40;4.90;;;;;;;2.50;59.68;100542.03;1028561;28;20054;-73
2021/04/28 02:10:38;;;;;;;5.40;4.90;;;;;;;2.52;59.57;100534.41;1031904;28;20053;-74
2021/04/28 02:11:09;;;;;;;5.88;5.18;;;;;;;2.55;59.64;100539.63;1029063;28;20051;-74
2021/04/28 02:11:40;;;;;;;5.95;5.32;;;;;;;2.52;59.48;100540.38;1031710;28;20061;-74
2021/04/28 02:12:12;;;;;;;7.07;4.85;;;;;;;2.49;59.62;100535.16;1027807;28;20054;-73
2021/04/28 02:12:47;;;;;;;5.88;5.38;;;;;;;2.45;59.85;100542.63;1024202;28;20043;-74
2021/04/28 02:13:20;;;;;;;9.07;5.65;;;;;;;2.39;59.67;100541.56;1027806;28;20050;-74
2021/04/28 02:13:51;;;;;;;11.90;5.78;;;;;;;2.39;59.80;100541.56;1024868;28;20048;-74
2021/04/28 02:14:23;;;;;;;6.07;4.97;;;;;;;2.35;60.05;100542.22;1028894;28;20598;-74
2021/04/28 02:14:56;;;;;;;5.80;5.05;;;;;;;2.36;59.97;100538.00;1029806;28;20055;-73
2021/04/28 02:15:28;;;;;;;8.38;5.93;;;;;;;2.46;59.62;100541.81;1028513;28;20051;-74
2021/04/28 02:16:01;;;;;;;5.82;4.93;;;;;;;2.46;59.69;100536.72;1031625;28;20050;-74
2021/04/28 02:16:37;;;;;;;7.70;4.72;;;;;;;2.39;59.51;100523.69;1031844;28;20101;-74
2021/04/28 02:17:09;;;;;;;5.72;4.93;;;;;;;2.51;59.48;100540.34;1029373;28;20050;-74
2021/04/28 02:17:41;;;;;;;5.45;4.95;;;;;;;2.43;59.65;100541.69;1031756;28;20061;-73
2021/04/28 02:18:14;;;;;;;7.93;4.72;;;;;;;2.38;59.79;100536.38;1031745;28;20066;-74
2021/04/28 02:18:46;;;;;;;8.30;5.88;;;;;;;2.41;59.71;100531.41;1031812;28;20051;-73
2021/04/28 02:19:18;;;;;;;7.05;4.93;;;;;;;2.40;59.79;100534.78;1031606;28;20046;-74
2021/04/28 02:19:51;;;;;;;7.85;6.40;;;;;;;2.42;59.87;100540.81;1027924;28;20053;-74
2021/04/28 02:20:24;;;;;;;5.68;5.18;;;;;;;2.46;59.73;100536.72;1027610;28;20054;-73
2021/04/28 02:21:00;;;;;;;8.82;4.90;;;;;;;2.47;59.50;100538.44;1023597;29;20046;-74
2021/04/28 02:21:32;;;;;;;6.47;5.38;;;;;;;2.48;59.63;100535.09;1025401;28;20095;-74
2021/04/28 02:22:03;;;;;;;6.88;6.07;;;;;;;2.43;59.41;100534.88;1025264;28;20059;-74
2021/04/28 02:22:39;;;;;;;6.05;5.45;;;;;;;2.42;59.40;100530.59;1028738;28;20043;-73
2021/04/28 02:23:11;;;;;;;5.22;4.65;;;;;;;2.36;59.72;100531.22;1027849;28;20054;-74
2021/04/28 02:23:42;;;;;;;7.78;5.13;;;;;;;2.35;59.67;100537.13;1024923;28;20047;-74
2021/04/28 02:24:14;;;;;;;6.70;4.80;;;;;;;2.43;59.60;100536.56;1027683;28;20262;-74
2021/04/28 02:24:46;;;;;;;7.07;4.88;;;;;;;2.43;59.46;100537.44;1027824;28;20043;-74
2021/04/28 02:25:17;;;;;;;5.75;4.78;;;;;;;2.41;59.58;100536.50;1028624;28;20433;-73
2021/04/28 02:25:49;;;;;;;13.35;5.82;;;;;;;2.39;59.76;100531.34;1031547;28;20046;-74
2021/04/28 02:26:20;;;;;;;5.85;5.03;;;;;;;2.41;59.73;100528.84;1032377;28;20061;-74
2021/04/28 02:26:56;;;;;;;8.23;5.45;;;;;;;2.35;59.55;100524.38;1031789;28;20162;-74
2021/04/28 02:27:28;;;;;;;7.75;5.60;;;;;;;2.32;59.83;100531.88;1031742;28;20050;-74
2021/04/28 02:28:00;;;;;;;5.97;5.38;;;;;;;2.31;59.91;100526.72;1027719;28;20051;-73
2021/04/28 02:28:32;;;;;;;5.78;5.05;;;;;;;2.35;60.00;100528.59;1027736;28;20057;-74
2021/04/28 02:29:04;;;;;;;8.02;5.32;;;;;;;2.31;59.98;100527.59;1028387;28;20120;-74
2021/04/28 02:29:36;;;;;;;11.25;4.93;;;;;;;2.27;60.06;100532.47;1031886;28;20068;-74
2021/04/28 02:30:10;;;;;;;6.07;5.22;;;;;;;2.25;59.93;100536.66;1031676;28;20057;-73
2021/04/28 02:30:41;;;;;;;6.90;5.60;;;;;;;2.24;60.20;100529.81;1031569;28;20050;-73
2021/04/28 02:31:12;;;;;;;7.63;5.20;;;;;;;2.17;60.40;100531.25;1032557;28;20518;-74
2021/04/28 02:31:43;;;;;;;7.68;5.15;;;;;;;2.16;60.55;100533.72;1036055;28;20056;-74
2021/04/28 02:32:15;;;;;;;10.10;5.68;;;;;;;2.17;60.67;100532.94;1031729;28;20516;-74
2021/04/28 02:32:46;;;;;;;6.10;5.50;;;;;;;2.16;60.42;100534.59;1027658;28;20057;-73